sensor_id;sensor_type;location;lat;lon;timestamp;P1;durP1;ratioP1;P2;durP2;ratioP2
20966;SDS011;10642;50.682;18.510;2023-05-23T00:00:58;12.73;;;6.80;;
20966;SDS011;10642;50.682;18.510;2023-05-23T00:03:25;10.33;;;6.67;;
20966;SDS011;10642;50.682;18.510;2023-05-23T00:05:52;8.43;;;6.47;;
20966;SDS011;10642;50.682;18.510;2023-05-23T00:08:19;8.77;;;6.77;;
20966;SDS011;10642;50.682;18.510;2023-05-23T00:10:46;12.53;;;6.87;;
20966;SDS011;10642;50.682;18.510;2023-05-23T00:13:13;7.77;;;5.27;;
20966;SDS011;10642;50.682;18.510;2023-05-23T00:15:40;11.07;;;6.03;;
20966;SDS011;10642;50.682;18.510;2023-05-23T00:18:08;9.70;;;6.70;;
20966;SDS011;10642;50.682;18.510;2023-05-23T00:20:37;11.40;;;6.67;;
20966;SDS011;10642;50.682;18.510;2023-05-23T00:23:06;9.37;;;6.23;;
20966;SDS011;10642;50.682;18.510;2023-05-23T00:25:35;14.90;;;7.10;;
20966;SDS011;10642;50.682;18.510;2023-05-23T00:28:02;14.27;;;6.63;;
20966;SDS011;10642;50.682;18.510;2023-05-23T00:30:30;8.57;;;6.27;;
20966;SDS011;10642;50.682;18.510;2023-05-23T00:32:58;12.10;;;6.47;;
20966;SDS011;10642;50.682;18.510;2023-05-23T00:35:25;13.50;;;7.10;;
20966;SDS011;10642;50.682;18.510;2023-05-23T00:37:53;13.53;;;7.10;;
20966;SDS011;10642;50.682;18.510;2023-05-23T00:40:21;12.27;;;7.20;;
20966;SDS011;10642;50.682;18.510;2023-05-23T00:42:48;15.13;;;7.70;;
20966;SDS011;10642;50.682;18.510;2023-05-23T00:45:15;11.07;;;6.83;;
20966;SDS011;10642;50.682;18.510;2023-05-23T00:47:43;11.30;;;7.17;;
20966;SDS011;10642;50.682;18.510;2023-05-23T00:50:11;18.13;;;7.50;;
20966;SDS011;10642;50.682;18.510;2023-05-23T00:52:44;13.83;;;7.60;;
20966;SDS011;10642;50.682;18.510;2023-05-23T00:55:11;14.40;;;6.50;;
20966;SDS011;10642;50.682;18.510;2023-05-23T00:57:38;13.77;;;7.30;;
20966;SDS011;10642;50.682;18.510;2023-05-23T01:00:07;12.27;;;7.30;;
20966;SDS011;10642;50.682;18.510;2023-05-23T01:02:54;12.83;;;6.50;;
20966;SDS011;10642;50.682;18.510;2023-05-23T01:05:21;12.73;;;8.33;;
20966;SDS011;10642;50.682;18.510;2023-05-23T01:07:51;12.03;;;7.80;;
20966;SDS011;10642;50.682;18.510;2023-05-23T01:10:18;13.67;;;7.67;;
20966;SDS011;10642;50.682;18.510;2023-05-23T01:12:54;12.90;;;7.77;;
20966;SDS011;10642;50.682;18.510;2023-05-23T01:15:24;15.27;;;7.63;;
20966;SDS011;10642;50.682;18.510;2023-05-23T01:20:21;13.40;;;7.93;;
20966;SDS011;10642;50.682;18.510;2023-05-23T01:22:53;19.83;;;7.73;;
20966;SDS011;10642;50.682;18.510;2023-05-23T01:28:14;13.00;;;7.57;;
20966;SDS011;10642;50.682;18.510;2023-05-23T01:30:43;10.13;;;7.17;;
20966;SDS011;10642;50.682;18.510;2023-05-23T01:33:12;12.37;;;7.07;;
20966;SDS011;10642;50.682;18.510;2023-05-23T01:35:40;10.37;;;7.07;;
20966;SDS011;10642;50.682;18.510;2023-05-23T01:38:09;11.37;;;7.87;;
20966;SDS011;10642;50.682;18.510;2023-05-23T01:40:37;13.97;;;7.67;;
20966;SDS011;10642;50.682;18.510;2023-05-23T01:43:04;11.63;;;7.50;;
20966;SDS011;10642;50.682;18.510;2023-05-23T01:45:31;12.77;;;8.10;;
20966;SDS011;10642;50.682;18.510;2023-05-23T01:47:59;12.53;;;7.47;;
20966;SDS011;10642;50.682;18.510;2023-05-23T01:50:26;17.00;;;8.03;;
20966;SDS011;10642;50.682;18.510;2023-05-23T01:52:54;14.97;;;7.93;;
20966;SDS011;10642;50.682;18.510;2023-05-23T01:55:22;13.13;;;7.20;;
20966;SDS011;10642;50.682;18.510;2023-05-23T01:57:55;16.03;;;8.00;;
20966;SDS011;10642;50.682;18.510;2023-05-23T02:00:23;14.17;;;7.27;;
20966;SDS011;10642;50.682;18.510;2023-05-23T02:02:50;19.10;;;8.40;;
20966;SDS011;10642;50.682;18.510;2023-05-23T02:05:17;13.73;;;7.77;;
20966;SDS011;10642;50.682;18.510;2023-05-23T02:07:44;13.33;;;7.40;;
20966;SDS011;10642;50.682;18.510;2023-05-23T02:10:11;11.53;;;7.63;;
20966;SDS011;10642;50.682;18.510;2023-05-23T02:12:38;12.30;;;7.60;;
20966;SDS011;10642;50.682;18.510;2023-05-23T02:15:05;15.83;;;8.30;;
20966;SDS011;10642;50.682;18.510;2023-05-23T02:17:33;11.27;;;7.60;;
20966;SDS011;10642;50.682;18.510;2023-05-23T02:20:00;12.67;;;8.03;;
20966;SDS011;10642;50.682;18.510;2023-05-23T02:22:27;11.20;;;7.77;;
20966;SDS011;10642;50.682;18.510;2023-05-23T02:24:54;11.83;;;7.43;;
20966;SDS011;10642;50.682;18.510;2023-05-23T02:27:21;10.70;;;8.10;;
20966;SDS011;10642;50.682;18.510;2023-05-23T02:29:48;17.30;;;7.97;;
20966;SDS011;10642;50.682;18.510;2023-05-23T02:32:15;10.17;;;7.97;;
20966;SDS011;10642;50.682;18.510;2023-05-23T02:34:42;16.47;;;8.27;;
20966;SDS011;10642;50.682;18.510;2023-05-23T02:37:12;17.30;;;8.40;;
20966;SDS011;10642;50.682;18.510;2023-05-23T02:39:39;11.93;;;8.63;;
20966;SDS011;10642;50.682;18.510;2023-05-23T02:42:07;12.77;;;7.97;;
20966;SDS011;10642;50.682;18.510;2023-05-23T02:44:34;11.50;;;7.83;;
20966;SDS011;10642;50.682;18.510;2023-05-23T02:47:01;12.63;;;8.10;;
20966;SDS011;10642;50.682;18.510;2023-05-23T02:49:28;15.67;;;7.70;;
20966;SDS011;10642;50.682;18.510;2023-05-23T02:51:55;14.03;;;8.00;;
20966;SDS011;10642;50.682;18.510;2023-05-23T02:54:22;16.10;;;8.27;;
20966;SDS011;10642;50.682;18.510;2023-05-23T02:56:49;12.63;;;8.17;;
20966;SDS011;10642;50.682;18.510;2023-05-23T02:59:17;19.50;;;8.30;;
20966;SDS011;10642;50.682;18.510;2023-05-23T03:01:44;11.60;;;7.77;;
20966;SDS011;10642;50.682;18.510;2023-05-23T03:04:11;12.37;;;7.73;;
20966;SDS011;10642;50.682;18.510;2023-05-23T03:06:39;15.07;;;8.47;;
20966;SDS011;10642;50.682;18.510;2023-05-23T03:09:08;20.30;;;8.37;;
20966;SDS011;10642;50.682;18.510;2023-05-23T03:11:35;18.37;;;8.80;;
20966;SDS011;10642;50.682;18.510;2023-05-23T03:14:02;12.47;;;7.90;;
20966;SDS011;10642;50.682;18.510;2023-05-23T03:16:30;14.93;;;7.97;;
20966;SDS011;10642;50.682;18.510;2023-05-23T03:18:57;15.70;;;7.83;;
20966;SDS011;10642;50.682;18.510;2023-05-23T03:21:24;15.77;;;7.17;;
20966;SDS011;10642;50.682;18.510;2023-05-23T03:23:51;13.63;;;7.30;;
20966;SDS011;10642;50.682;18.510;2023-05-23T03:26:18;13.13;;;7.20;;
20966;SDS011;10642;50.682;18.510;2023-05-23T03:28:49;13.40;;;7.37;;
20966;SDS011;10642;50.682;18.510;2023-05-23T03:31:18;14.40;;;7.77;;
20966;SDS011;10642;50.682;18.510;2023-05-23T03:33:45;14.13;;;8.27;;
20966;SDS011;10642;50.682;18.510;2023-05-23T03:36:12;8.73;;;7.50;;
20966;SDS011;10642;50.682;18.510;2023-05-23T03:38:39;13.07;;;6.27;;
20966;SDS011;10642;50.682;18.510;2023-05-23T03:41:06;15.27;;;7.77;;
20966;SDS011;10642;50.682;18.510;2023-05-23T03:43:33;13.90;;;7.37;;
20966;SDS011;10642;50.682;18.510;2023-05-23T03:46:01;13.20;;;7.33;;
20966;SDS011;10642;50.682;18.510;2023-05-23T03:48:28;14.13;;;7.53;;
20966;SDS011;10642;50.682;18.510;2023-05-23T03:50:56;13.23;;;7.77;;
20966;SDS011;10642;50.682;18.510;2023-05-23T03:53:23;11.87;;;7.77;;
20966;SDS011;10642;50.682;18.510;2023-05-23T03:55:50;10.57;;;7.57;;
20966;SDS011;10642;50.682;18.510;2023-05-23T03:58:20;15.20;;;8.30;;
20966;SDS011;10642;50.682;18.510;2023-05-23T04:00:50;13.63;;;7.80;;
20966;SDS011;10642;50.682;18.510;2023-05-23T04:03:19;13.40;;;7.97;;
20966;SDS011;10642;50.682;18.510;2023-05-23T04:05:48;15.30;;;8.37;;
20966;SDS011;10642;50.682;18.510;2023-05-23T04:08:15;13.97;;;7.73;;
20966;SDS011;10642;50.682;18.510;2023-05-23T04:10:43;15.80;;;7.90;;
20966;SDS011;10642;50.682;18.510;2023-05-23T04:13:10;14.53;;;8.37;;
20966;SDS011;10642;50.682;18.510;2023-05-23T04:15:38;13.67;;;8.50;;
20966;SDS011;10642;50.682;18.510;2023-05-23T04:18:09;15.37;;;8.47;;
20966;SDS011;10642;50.682;18.510;2023-05-23T04:20:36;14.80;;;8.53;;
20966;SDS011;10642;50.682;18.510;2023-05-23T04:23:04;14.63;;;8.90;;
20966;SDS011;10642;50.682;18.510;2023-05-23T04:25:34;13.50;;;7.47;;
20966;SDS011;10642;50.682;18.510;2023-05-23T04:28:11;11.17;;;7.77;;
20966;SDS011;10642;50.682;18.510;2023-05-23T04:30:38;14.40;;;7.73;;
20966;SDS011;10642;50.682;18.510;2023-05-23T04:33:06;15.43;;;7.67;;
20966;SDS011;10642;50.682;18.510;2023-05-23T04:35:33;11.17;;;7.27;;
20966;SDS011;10642;50.682;18.510;2023-05-23T04:38:05;14.27;;;7.90;;
20966;SDS011;10642;50.682;18.510;2023-05-23T04:40:32;12.13;;;8.30;;
20966;SDS011;10642;50.682;18.510;2023-05-23T04:43:19;14.13;;;8.43;;
20966;SDS011;10642;50.682;18.510;2023-05-23T04:45:53;15.10;;;8.43;;
20966;SDS011;10642;50.682;18.510;2023-05-23T04:48:32;15.80;;;8.53;;
20966;SDS011;10642;50.682;18.510;2023-05-23T04:51:02;17.80;;;8.27;;
20966;SDS011;10642;50.682;18.510;2023-05-23T04:53:33;15.03;;;8.27;;
20966;SDS011;10642;50.682;18.510;2023-05-23T04:56:00;9.80;;;6.90;;
20966;SDS011;10642;50.682;18.510;2023-05-23T04:58:29;12.03;;;7.43;;
20966;SDS011;10642;50.682;18.510;2023-05-23T05:01:02;13.43;;;7.23;;
20966;SDS011;10642;50.682;18.510;2023-05-23T05:03:29;12.07;;;7.40;;
20966;SDS011;10642;50.682;18.510;2023-05-23T05:05:57;15.83;;;7.60;;
20966;SDS011;10642;50.682;18.510;2023-05-23T05:08:24;12.57;;;7.00;;
20966;SDS011;10642;50.682;18.510;2023-05-23T05:10:53;13.97;;;7.80;;
20966;SDS011;10642;50.682;18.510;2023-05-23T05:13:19;10.90;;;7.27;;
20966;SDS011;10642;50.682;18.510;2023-05-23T05:15:50;14.53;;;7.20;;
20966;SDS011;10642;50.682;18.510;2023-05-23T05:18:18;12.87;;;6.77;;
20966;SDS011;10642;50.682;18.510;2023-05-23T05:20:45;12.93;;;6.83;;
20966;SDS011;10642;50.682;18.510;2023-05-23T05:23:13;10.47;;;5.97;;
20966;SDS011;10642;50.682;18.510;2023-05-23T05:25:41;10.63;;;6.60;;
20966;SDS011;10642;50.682;18.510;2023-05-23T05:28:08;18.23;;;7.30;;
20966;SDS011;10642;50.682;18.510;2023-05-23T05:30:42;9.83;;;6.47;;
20966;SDS011;10642;50.682;18.510;2023-05-23T05:33:12;12.77;;;5.90;;
20966;SDS011;10642;50.682;18.510;2023-05-23T05:35:40;9.77;;;6.00;;
20966;SDS011;10642;50.682;18.510;2023-05-23T05:38:07;8.97;;;6.27;;
20966;SDS011;10642;50.682;18.510;2023-05-23T05:40:37;12.57;;;6.03;;
20966;SDS011;10642;50.682;18.510;2023-05-23T05:43:05;11.40;;;6.33;;
20966;SDS011;10642;50.682;18.510;2023-05-23T05:45:33;9.23;;;6.07;;
20966;SDS011;10642;50.682;18.510;2023-05-23T05:48:00;16.50;;;6.40;;
20966;SDS011;10642;50.682;18.510;2023-05-23T05:50:28;13.10;;;6.67;;
20966;SDS011;10642;50.682;18.510;2023-05-23T05:52:55;13.90;;;6.83;;
20966;SDS011;10642;50.682;18.510;2023-05-23T05:55:22;15.70;;;6.30;;
20966;SDS011;10642;50.682;18.510;2023-05-23T05:57:52;10.27;;;6.13;;
20966;SDS011;10642;50.682;18.510;2023-05-23T06:00:20;12.20;;;6.47;;
20966;SDS011;10642;50.682;18.510;2023-05-23T06:02:54;13.17;;;5.97;;
20966;SDS011;10642;50.682;18.510;2023-05-23T06:05:36;16.37;;;7.10;;
20966;SDS011;10642;50.682;18.510;2023-05-23T06:08:04;10.00;;;6.77;;
20966;SDS011;10642;50.682;18.510;2023-05-23T06:10:31;12.70;;;7.37;;
20966;SDS011;10642;50.682;18.510;2023-05-23T06:12:58;9.37;;;5.83;;
20966;SDS011;10642;50.682;18.510;2023-05-23T06:15:25;9.60;;;5.73;;
20966;SDS011;10642;50.682;18.510;2023-05-23T06:17:52;12.97;;;6.03;;
20966;SDS011;10642;50.682;18.510;2023-05-23T06:20:20;11.07;;;6.07;;
20966;SDS011;10642;50.682;18.510;2023-05-23T06:22:47;12.77;;;6.07;;
20966;SDS011;10642;50.682;18.510;2023-05-23T06:25:14;11.53;;;5.67;;
20966;SDS011;10642;50.682;18.510;2023-05-23T06:27:40;11.70;;;6.53;;
20966;SDS011;10642;50.682;18.510;2023-05-23T06:30:08;12.70;;;6.30;;
20966;SDS011;10642;50.682;18.510;2023-05-23T06:32:35;10.90;;;5.73;;
20966;SDS011;10642;50.682;18.510;2023-05-23T06:35:02;9.37;;;5.30;;
20966;SDS011;10642;50.682;18.510;2023-05-23T06:37:31;13.80;;;5.37;;
20966;SDS011;10642;50.682;18.510;2023-05-23T06:39:58;9.00;;;5.93;;
20966;SDS011;10642;50.682;18.510;2023-05-23T06:42:25;9.97;;;5.57;;
20966;SDS011;10642;50.682;18.510;2023-05-23T06:45:04;7.57;;;5.47;;
20966;SDS011;10642;50.682;18.510;2023-05-23T06:47:31;9.27;;;6.10;;
20966;SDS011;10642;50.682;18.510;2023-05-23T06:50:01;9.83;;;5.80;;
20966;SDS011;10642;50.682;18.510;2023-05-23T06:52:30;9.27;;;5.40;;
20966;SDS011;10642;50.682;18.510;2023-05-23T06:54:57;11.10;;;5.80;;
20966;SDS011;10642;50.682;18.510;2023-05-23T06:57:25;10.20;;;5.67;;
20966;SDS011;10642;50.682;18.510;2023-05-23T06:59:51;11.40;;;5.27;;
20966;SDS011;10642;50.682;18.510;2023-05-23T07:02:19;10.00;;;6.03;;
20966;SDS011;10642;50.682;18.510;2023-05-23T07:04:46;13.97;;;6.13;;
20966;SDS011;10642;50.682;18.510;2023-05-23T07:07:29;8.10;;;5.10;;
20966;SDS011;10642;50.682;18.510;2023-05-23T07:09:56;11.30;;;5.53;;
20966;SDS011;10642;50.682;18.510;2023-05-23T07:12:22;8.93;;;5.47;;
20966;SDS011;10642;50.682;18.510;2023-05-23T07:14:50;9.50;;;5.47;;
20966;SDS011;10642;50.682;18.510;2023-05-23T07:17:18;12.03;;;6.53;;
20966;SDS011;10642;50.682;18.510;2023-05-23T07:19:46;9.50;;;5.37;;
20966;SDS011;10642;50.682;18.510;2023-05-23T07:22:13;14.83;;;5.87;;
20966;SDS011;10642;50.682;18.510;2023-05-23T07:24:41;10.47;;;5.47;;
20966;SDS011;10642;50.682;18.510;2023-05-23T07:27:09;10.40;;;5.90;;
20966;SDS011;10642;50.682;18.510;2023-05-23T07:29:37;9.17;;;5.63;;
20966;SDS011;10642;50.682;18.510;2023-05-23T07:32:06;11.30;;;5.77;;
20966;SDS011;10642;50.682;18.510;2023-05-23T07:34:33;8.40;;;5.43;;
20966;SDS011;10642;50.682;18.510;2023-05-23T07:37:00;9.83;;;5.90;;
20966;SDS011;10642;50.682;18.510;2023-05-23T07:39:35;8.50;;;5.70;;
20966;SDS011;10642;50.682;18.510;2023-05-23T07:42:03;9.37;;;5.60;;
20966;SDS011;10642;50.682;18.510;2023-05-23T07:44:30;11.33;;;5.30;;
20966;SDS011;10642;50.682;18.510;2023-05-23T07:46:57;10.53;;;5.60;;
20966;SDS011;10642;50.682;18.510;2023-05-23T07:49:24;10.50;;;5.87;;
20966;SDS011;10642;50.682;18.510;2023-05-23T07:51:52;8.20;;;4.97;;
20966;SDS011;10642;50.682;18.510;2023-05-23T07:54:19;12.53;;;4.80;;
20966;SDS011;10642;50.682;18.510;2023-05-23T07:56:51;10.43;;;4.67;;
20966;SDS011;10642;50.682;18.510;2023-05-23T07:59:18;11.27;;;5.17;;
20966;SDS011;10642;50.682;18.510;2023-05-23T08:01:48;8.13;;;5.03;;
20966;SDS011;10642;50.682;18.510;2023-05-23T08:04:20;10.00;;;4.70;;
20966;SDS011;10642;50.682;18.510;2023-05-23T08:06:51;7.03;;;5.33;;
20966;SDS011;10642;50.682;18.510;2023-05-23T08:09:53;11.60;;;6.30;;
20966;SDS011;10642;50.682;18.510;2023-05-23T08:12:21;11.50;;;6.00;;
20966;SDS011;10642;50.682;18.510;2023-05-23T08:14:57;9.17;;;4.80;;
20966;SDS011;10642;50.682;18.510;2023-05-23T08:17:46;11.57;;;5.97;;
20966;SDS011;10642;50.682;18.510;2023-05-23T08:20:15;11.67;;;5.90;;
20966;SDS011;10642;50.682;18.510;2023-05-23T08:22:44;19.93;;;6.57;;
20966;SDS011;10642;50.682;18.510;2023-05-23T08:25:11;14.17;;;5.73;;
20966;SDS011;10642;50.682;18.510;2023-05-23T08:27:39;10.43;;;5.27;;
20966;SDS011;10642;50.682;18.510;2023-05-23T08:30:21;8.50;;;5.03;;
20966;SDS011;10642;50.682;18.510;2023-05-23T08:32:49;10.67;;;5.00;;
20966;SDS011;10642;50.682;18.510;2023-05-23T08:35:15;7.60;;;4.80;;
20966;SDS011;10642;50.682;18.510;2023-05-23T08:37:43;8.53;;;4.90;;
20966;SDS011;10642;50.682;18.510;2023-05-23T08:40:18;13.40;;;6.23;;
20966;SDS011;10642;50.682;18.510;2023-05-23T08:42:53;7.37;;;4.77;;
20966;SDS011;10642;50.682;18.510;2023-05-23T08:45:20;10.53;;;4.70;;
20966;SDS011;10642;50.682;18.510;2023-05-23T08:47:47;10.03;;;5.50;;
20966;SDS011;10642;50.682;18.510;2023-05-23T08:50:17;14.33;;;5.07;;
20966;SDS011;10642;50.682;18.510;2023-05-23T08:52:52;12.53;;;5.93;;
20966;SDS011;10642;50.682;18.510;2023-05-23T08:55:20;11.30;;;4.70;;
20966;SDS011;10642;50.682;18.510;2023-05-23T08:57:48;15.23;;;4.97;;
20966;SDS011;10642;50.682;18.510;2023-05-23T09:00:41;9.23;;;5.00;;
20966;SDS011;10642;50.682;18.510;2023-05-23T09:03:09;13.97;;;5.73;;
20966;SDS011;10642;50.682;18.510;2023-05-23T09:06:01;11.70;;;5.30;;
20966;SDS011;10642;50.682;18.510;2023-05-23T09:08:29;11.83;;;5.17;;
20966;SDS011;10642;50.682;18.510;2023-05-23T09:10:57;9.50;;;4.87;;
20966;SDS011;10642;50.682;18.510;2023-05-23T09:13:25;12.43;;;5.37;;
20966;SDS011;10642;50.682;18.510;2023-05-23T09:15:54;11.97;;;5.03;;
20966;SDS011;10642;50.682;18.510;2023-05-23T09:18:24;10.93;;;4.63;;
20966;SDS011;10642;50.682;18.510;2023-05-23T09:20:51;18.17;;;5.07;;
20966;SDS011;10642;50.682;18.510;2023-05-23T09:23:18;20.17;;;6.53;;
20966;SDS011;10642;50.682;18.510;2023-05-23T09:25:46;13.53;;;5.80;;
20966;SDS011;10642;50.682;18.510;2023-05-23T09:28:14;13.30;;;5.67;;
20966;SDS011;10642;50.682;18.510;2023-05-23T09:30:42;11.43;;;5.23;;
20966;SDS011;10642;50.682;18.510;2023-05-23T09:33:08;27.57;;;6.03;;
20966;SDS011;10642;50.682;18.510;2023-05-23T09:35:35;17.33;;;5.67;;
20966;SDS011;10642;50.682;18.510;2023-05-23T09:38:09;11.20;;;5.57;;
20966;SDS011;10642;50.682;18.510;2023-05-23T09:40:36;14.37;;;5.40;;
20966;SDS011;10642;50.682;18.510;2023-05-23T09:43:03;15.20;;;5.37;;
20966;SDS011;10642;50.682;18.510;2023-05-23T09:45:30;11.67;;;6.17;;
20966;SDS011;10642;50.682;18.510;2023-05-23T09:47:59;10.70;;;5.30;;
20966;SDS011;10642;50.682;18.510;2023-05-23T09:50:29;12.67;;;5.43;;
20966;SDS011;10642;50.682;18.510;2023-05-23T09:52:58;10.67;;;5.60;;
20966;SDS011;10642;50.682;18.510;2023-05-23T09:55:25;13.67;;;5.53;;
20966;SDS011;10642;50.682;18.510;2023-05-23T09:57:53;14.47;;;5.93;;
20966;SDS011;10642;50.682;18.510;2023-05-23T10:00:22;7.80;;;4.80;;
20966;SDS011;10642;50.682;18.510;2023-05-23T10:05:34;7.53;;;4.53;;
20966;SDS011;10642;50.682;18.510;2023-05-23T10:08:04;12.63;;;5.30;;
20966;SDS011;10642;50.682;18.510;2023-05-23T10:10:33;13.83;;;5.03;;
20966;SDS011;10642;50.682;18.510;2023-05-23T10:13:01;8.77;;;4.77;;
20966;SDS011;10642;50.682;18.510;2023-05-23T10:15:30;12.03;;;4.93;;
20966;SDS011;10642;50.682;18.510;2023-05-23T10:18:08;19.97;;;4.80;;
20966;SDS011;10642;50.682;18.510;2023-05-23T10:20:38;7.63;;;4.70;;
20966;SDS011;10642;50.682;18.510;2023-05-23T10:23:06;10.17;;;4.17;;
20966;SDS011;10642;50.682;18.510;2023-05-23T10:25:33;9.27;;;5.00;;
20966;SDS011;10642;50.682;18.510;2023-05-23T10:28:02;11.73;;;5.00;;
20966;SDS011;10642;50.682;18.510;2023-05-23T10:30:30;9.33;;;4.53;;
20966;SDS011;10642;50.682;18.510;2023-05-23T10:32:58;8.53;;;4.77;;
20966;SDS011;10642;50.682;18.510;2023-05-23T10:46:14;7.63;;;4.60;;
20966;SDS011;10642;50.682;18.510;2023-05-23T10:48:42;6.73;;;4.50;;
20966;SDS011;10642;50.682;18.510;2023-05-23T10:51:10;7.40;;;4.83;;
20966;SDS011;10642;50.682;18.510;2023-05-23T10:53:38;9.50;;;4.73;;
20966;SDS011;10642;50.682;18.510;2023-05-23T10:56:06;9.33;;;5.13;;
20966;SDS011;10642;50.682;18.510;2023-05-23T10:58:33;12.67;;;4.97;;
20966;SDS011;10642;50.682;18.510;2023-05-23T11:01:04;7.57;;;5.10;;
20966;SDS011;10642;50.682;18.510;2023-05-23T11:06:02;9.67;;;5.40;;
20966;SDS011;10642;50.682;18.510;2023-05-23T11:08:39;8.57;;;4.80;;
20966;SDS011;10642;50.682;18.510;2023-05-23T11:11:14;8.43;;;4.27;;
20966;SDS011;10642;50.682;18.510;2023-05-23T11:13:57;9.50;;;4.70;;
20966;SDS011;10642;50.682;18.510;2023-05-23T11:22:16;18.17;;;5.17;;
20966;SDS011;10642;50.682;18.510;2023-05-23T11:24:51;7.87;;;5.27;;
20966;SDS011;10642;50.682;18.510;2023-05-23T11:27:25;8.10;;;4.50;;
20966;SDS011;10642;50.682;18.510;2023-05-23T11:32:35;9.33;;;5.13;;
20966;SDS011;10642;50.682;18.510;2023-05-23T11:35:06;10.23;;;4.97;;
20966;SDS011;10642;50.682;18.510;2023-05-23T11:37:34;12.90;;;6.00;;
20966;SDS011;10642;50.682;18.510;2023-05-23T11:40:23;13.53;;;6.13;;
20966;SDS011;10642;50.682;18.510;2023-05-23T11:42:48;9.33;;;6.63;;
20966;SDS011;10642;50.682;18.510;2023-05-23T11:45:19;9.67;;;6.37;;
20966;SDS011;10642;50.682;18.510;2023-05-23T11:47:46;13.00;;;6.80;;
20966;SDS011;10642;50.682;18.510;2023-05-23T11:50:16;15.07;;;8.07;;
20966;SDS011;10642;50.682;18.510;2023-05-23T11:52:44;13.63;;;7.47;;
20966;SDS011;10642;50.682;18.510;2023-05-23T11:55:17;13.73;;;7.67;;
20966;SDS011;10642;50.682;18.510;2023-05-23T11:57:44;13.53;;;7.67;;
20966;SDS011;10642;50.682;18.510;2023-05-23T12:00:12;13.27;;;7.43;;
20966;SDS011;10642;50.682;18.510;2023-05-23T12:02:39;16.23;;;8.17;;
20966;SDS011;10642;50.682;18.510;2023-05-23T12:05:10;17.27;;;7.63;;
20966;SDS011;10642;50.682;18.510;2023-05-23T12:07:45;17.40;;;7.57;;
20966;SDS011;10642;50.682;18.510;2023-05-23T12:10:13;13.33;;;7.40;;
20966;SDS011;10642;50.682;18.510;2023-05-23T12:12:41;16.90;;;7.40;;
20966;SDS011;10642;50.682;18.510;2023-05-23T12:15:09;13.07;;;6.70;;
20966;SDS011;10642;50.682;18.510;2023-05-23T12:17:37;15.30;;;7.03;;
20966;SDS011;10642;50.682;18.510;2023-05-23T12:20:05;14.47;;;6.70;;
20966;SDS011;10642;50.682;18.510;2023-05-23T12:22:32;9.40;;;6.80;;
20966;SDS011;10642;50.682;18.510;2023-05-23T12:24:59;12.77;;;7.20;;
20966;SDS011;10642;50.682;18.510;2023-05-23T12:27:26;10.67;;;6.77;;
20966;SDS011;10642;50.682;18.510;2023-05-23T12:32:32;9.40;;;6.67;;
20966;SDS011;10642;50.682;18.510;2023-05-23T12:34:59;12.43;;;7.30;;
20966;SDS011;10642;50.682;18.510;2023-05-23T12:37:26;11.27;;;7.37;;
20966;SDS011;10642;50.682;18.510;2023-05-23T12:39:55;9.63;;;6.33;;
20966;SDS011;10642;50.682;18.510;2023-05-23T12:42:22;14.67;;;6.67;;
20966;SDS011;10642;50.682;18.510;2023-05-23T12:44:52;10.90;;;6.87;;
20966;SDS011;10642;50.682;18.510;2023-05-23T12:47:19;14.77;;;7.43;;
20966;SDS011;10642;50.682;18.510;2023-05-23T12:49:46;11.07;;;7.10;;
20966;SDS011;10642;50.682;18.510;2023-05-23T12:52:13;11.67;;;6.70;;
20966;SDS011;10642;50.682;18.510;2023-05-23T12:54:40;13.87;;;6.20;;
20966;SDS011;10642;50.682;18.510;2023-05-23T12:57:07;9.53;;;6.40;;
20966;SDS011;10642;50.682;18.510;2023-05-23T12:59:34;7.23;;;5.97;;
20966;SDS011;10642;50.682;18.510;2023-05-23T13:02:01;11.93;;;6.40;;
20966;SDS011;10642;50.682;18.510;2023-05-23T13:04:28;13.60;;;6.87;;
20966;SDS011;10642;50.682;18.510;2023-05-23T13:06:57;8.50;;;6.43;;
20966;SDS011;10642;50.682;18.510;2023-05-23T13:09:24;9.33;;;6.17;;
20966;SDS011;10642;50.682;18.510;2023-05-23T13:11:51;8.97;;;5.73;;
20966;SDS011;10642;50.682;18.510;2023-05-23T13:14:18;14.47;;;6.63;;
20966;SDS011;10642;50.682;18.510;2023-05-23T13:16:45;7.43;;;5.97;;
20966;SDS011;10642;50.682;18.510;2023-05-23T13:19:12;9.17;;;5.77;;
20966;SDS011;10642;50.682;18.510;2023-05-23T13:21:39;7.07;;;5.50;;
20966;SDS011;10642;50.682;18.510;2023-05-23T13:24:06;8.83;;;5.40;;
20966;SDS011;10642;50.682;18.510;2023-05-23T13:26:34;7.00;;;5.57;;
20966;SDS011;10642;50.682;18.510;2023-05-23T13:29:01;9.70;;;5.47;;
20966;SDS011;10642;50.682;18.510;2023-05-23T13:31:28;13.83;;;5.47;;
20966;SDS011;10642;50.682;18.510;2023-05-23T13:33:55;7.93;;;5.80;;
20966;SDS011;10642;50.682;18.510;2023-05-23T13:36:22;8.67;;;5.57;;
20966;SDS011;10642;50.682;18.510;2023-05-23T13:38:49;10.60;;;5.93;;
20966;SDS011;10642;50.682;18.510;2023-05-23T13:41:16;9.80;;;6.43;;
20966;SDS011;10642;50.682;18.510;2023-05-23T13:43:43;8.53;;;6.00;;
20966;SDS011;10642;50.682;18.510;2023-05-23T13:46:10;7.57;;;5.73;;
20966;SDS011;10642;50.682;18.510;2023-05-23T13:48:37;8.60;;;5.70;;
20966;SDS011;10642;50.682;18.510;2023-05-23T13:51:04;9.13;;;5.60;;
20966;SDS011;10642;50.682;18.510;2023-05-23T13:53:31;8.73;;;5.53;;
20966;SDS011;10642;50.682;18.510;2023-05-23T13:55:58;10.00;;;5.67;;
20966;SDS011;10642;50.682;18.510;2023-05-23T13:58:25;9.67;;;5.97;;
20966;SDS011;10642;50.682;18.510;2023-05-23T14:00:52;9.70;;;6.20;;
20966;SDS011;10642;50.682;18.510;2023-05-23T14:03:19;8.63;;;6.07;;
20966;SDS011;10642;50.682;18.510;2023-05-23T14:05:46;10.60;;;7.00;;
20966;SDS011;10642;50.682;18.510;2023-05-23T14:08:13;8.80;;;6.53;;
20966;SDS011;10642;50.682;18.510;2023-05-23T14:10:40;10.10;;;6.40;;
20966;SDS011;10642;50.682;18.510;2023-05-23T14:13:08;9.13;;;6.77;;
20966;SDS011;10642;50.682;18.510;2023-05-23T14:15:35;10.20;;;6.30;;
20966;SDS011;10642;50.682;18.510;2023-05-23T14:18:04;8.67;;;6.17;;
20966;SDS011;10642;50.682;18.510;2023-05-23T14:20:31;10.97;;;6.23;;
20966;SDS011;10642;50.682;18.510;2023-05-23T14:22:58;9.00;;;6.03;;
20966;SDS011;10642;50.682;18.510;2023-05-23T14:25:25;7.87;;;5.13;;
20966;SDS011;10642;50.682;18.510;2023-05-23T14:27:52;7.87;;;5.80;;
20966;SDS011;10642;50.682;18.510;2023-05-23T14:30:19;9.63;;;6.07;;
20966;SDS011;10642;50.682;18.510;2023-05-23T14:32:46;10.43;;;6.60;;
20966;SDS011;10642;50.682;18.510;2023-05-23T14:35:13;9.80;;;6.27;;
20966;SDS011;10642;50.682;18.510;2023-05-23T14:37:40;8.70;;;5.93;;
20966;SDS011;10642;50.682;18.510;2023-05-23T14:40:07;11.57;;;7.00;;
20966;SDS011;10642;50.682;18.510;2023-05-23T14:42:36;9.00;;;5.80;;
20966;SDS011;10642;50.682;18.510;2023-05-23T14:45:03;12.17;;;6.70;;
20966;SDS011;10642;50.682;18.510;2023-05-23T14:47:30;12.17;;;6.63;;
20966;SDS011;10642;50.682;18.510;2023-05-23T14:49:58;12.47;;;6.87;;
20966;SDS011;10642;50.682;18.510;2023-05-23T14:52:25;9.43;;;5.50;;
20966;SDS011;10642;50.682;18.510;2023-05-23T14:54:52;8.23;;;5.27;;
20966;SDS011;10642;50.682;18.510;2023-05-23T14:57:19;11.00;;;6.97;;
20966;SDS011;10642;50.682;18.510;2023-05-23T14:59:46;8.07;;;4.80;;
20966;SDS011;10642;50.682;18.510;2023-05-23T15:02:13;10.47;;;5.93;;
20966;SDS011;10642;50.682;18.510;2023-05-23T15:04:40;6.83;;;5.07;;
20966;SDS011;10642;50.682;18.510;2023-05-23T15:07:07;12.30;;;5.87;;